Terminal Aerodrome Forecast
Issued by NWS Spokane, WA

Home | Current Version | Previous Version | Text Only | Print | Product List | Glossary On
Versions: 1 2 3 4 5 6 7 8 9 10 11 12 13 14
000
FTUS46 KOTX 242338
TAFLWS
TAF
KLWS 242338Z 2500/2524 17009KT P6SM VCSH SCT090 BKN200
     FM250200 15004KT P6SM BKN150
     FM250700 VRB03KT P6SM BKN080 OVC120
     FM251000 15005KT P6SM -SHRA BKN045 OVC070
     FM251800 30010KT P6SM -SHRA BKN030 OVC050=

USA.gov is the U.S. government's official web portal to all federal, state and local government web resources and services.